Time;durP1;ratioP1;P1;durP2;ratioP2;P2;SDS_P1;SDS_P2;PMS_P1;PMS_P2;Temp;Humidity;BMP_temperature;BMP_pressure;BME280_temperature;BME280_humidity;BME280_pressure;Samples;Min_cycle;Max_cycle;Signal;HPM_P1;HPM_P2
2022/11/27 00:02:41;;;;;;;3.53;3.28;;;;;;;;;;10506898;28;20209;-77
2022/11/27 00:07:42;;;;;;;3.97;3.58;;;;;;;;;;10491001;28;20221;-76
2022/11/27 00:12:44;;;;;;;5.23;3.47;;;;;;;;;;10476407;28;20214;-76
2022/11/27 00:17:45;;;;;;;3.67;3.38;;;;;;;;;;10504173;28;20300;-77
2022/11/27 00:22:46;;;;;;;5.00;3.17;;;;;;;;;;10505783;28;20217;-76
2022/11/27 00:27:47;;;;;;;5.23;3.50;;;;;;;;;;10506147;28;20209;-77
2022/11/27 00:32:48;;;;;;;3.20;2.97;;;;;;;;;;10505246;28;20237;-77
2022/11/27 00:37:49;;;;;;;6.03;3.30;;;;;;;;;;10494196;28;20603;-77
2022/11/27 00:42:50;;;;;;;11.25;3.85;;;;;;;;;;10507744;28;20206;-77
2022/11/27 00:47:51;;;;;;;4.23;3.70;;;;;;;;;;10505866;28;20216;-77
2022/11/27 00:52:52;;;;;;;7.03;5.10;;;;;;;;;;10505608;28;20213;-77
2022/11/27 00:57:53;;;;;;;7.97;4.40;;;;;;;;;;10498364;28;20862;-77
2022/11/27 01:02:54;;;;;;;6.77;4.97;;;;;;;;;;10509650;28;20214;-75
2022/11/27 01:07:56;;;;;;;10.33;5.53;;;;;;;;;;10488745;28;20201;-77
2022/11/27 01:12:57;;;;;;;6.43;4.83;;;;;;;;;;10505934;28;20217;-77
2022/11/27 01:17:58;;;;;;;8.15;4.78;;;;;;;;;;10500096;28;20224;-76
2022/11/27 01:22:59;;;;;;;8.33;4.50;;;;;;;;;;10489383;28;20739;-76
2022/11/27 01:28:00;;;;;;;7.68;4.13;;;;;;;;;;10495075;28;20205;-76
2022/11/27 01:33:01;;;;;;;4.77;4.40;;;;;;;;;;10503587;28;20209;-77
2022/11/27 01:38:02;;;;;;;5.57;4.60;;;;;;;;;;10487999;28;20216;-77
2022/11/27 01:43:03;;;;;;;6.15;4.65;;;;;;;;;;10500110;28;20225;-77
2022/11/27 01:48:04;;;;;;;6.17;4.07;;;;;;;;;;10485243;28;20216;-77
2022/11/27 01:53:12;;;;;;;6.90;4.60;;;;;;;;;;10495552;28;20206;-76
2022/11/27 01:58:14;;;;;;;10.50;5.00;;;;;;;;;;10509988;28;20605;-77
2022/11/27 02:03:15;;;;;;;6.32;4.22;;;;;;;;;;10502958;28;20844;-77
2022/11/27 02:08:17;;;;;;;5.33;4.53;;;;;;;;;;10513559;28;20209;-77
2022/11/27 02:13:27;;;;;;;8.80;3.90;;;;;;;;;;10493168;28;20209;-77
2022/11/27 02:18:47;;;;;;;8.40;4.50;;;;;;;;;;10511622;28;20205;-77
2022/11/27 02:24:12;;;;;;;9.93;4.80;;;;;;;;;;10470367;28;20226;-77
2022/11/27 02:29:14;;;;;;;6.33;4.50;;;;;;;;;;10467923;28;20281;-77
2022/11/27 02:34:27;;;;;;;10.95;4.97;;;;;;;;;;10469707;28;20675;-77
2022/11/27 02:39:32;;;;;;;7.95;4.63;;;;;;;;;;10466553;28;20206;-78
2022/11/27 02:44:35;;;;;;;16.60;5.47;;;;;;;;;;10466462;28;20210;-78
2022/11/27 02:49:37;;;;;;;7.50;4.95;;;;;;;;;;10460422;28;20971;-78
2022/11/27 02:54:39;;;;;;;7.60;4.67;;;;;;;;;;10448989;28;20260;-78
2022/11/27 02:59:42;;;;;;;7.43;5.23;;;;;;;;;;10466070;28;20210;-77
2022/11/27 03:04:46;;;;;;;7.65;4.63;;;;;;;;;;10463409;28;20865;-76
2022/11/27 03:09:49;;;;;;;7.90;4.78;;;;;;;;;;10457273;28;20215;-78
2022/11/27 03:14:50;;;;;;;6.43;4.53;;;;;;;;;;10462901;28;20224;-77
2022/11/27 03:19:54;;;;;;;8.13;5.28;;;;;;;;;;10475061;28;20607;-77
2022/11/27 03:24:55;;;;;;;15.50;5.28;;;;;;;;;;10507241;28;20218;-77
2022/11/27 03:29:57;;;;;;;15.13;5.25;;;;;;;;;;10508171;28;20209;-77
2022/11/27 03:34:59;;;;;;;14.18;5.50;;;;;;;;;;10509612;28;20217;-76
2022/11/27 03:40:00;;;;;;;11.15;5.72;;;;;;;;;;10508321;28;20300;-78
2022/11/27 03:45:01;;;;;;;8.23;4.47;;;;;;;;;;10510586;28;20206;-79
2022/11/27 03:50:08;;;;;;;7.80;3.93;;;;;;;;;;10506878;28;20658;-78
2022/11/27 03:55:16;;;;;;;9.75;5.10;;;;;;;;;;10490636;28;20772;-77
2022/11/27 04:00:17;;;;;;;10.65;5.25;;;;;;;;;;10490336;28;20253;-78
2022/11/27 04:05:18;;;;;;;13.13;5.40;;;;;;;;;;10491200;28;20648;-78
2022/11/27 04:10:20;;;;;;;6.78;4.70;;;;;;;;;;10497907;28;20182;-77
2022/11/27 04:15:21;;;;;;;8.82;4.90;;;;;;;;;;10503713;28;20216;-77
2022/11/27 04:20:22;;;;;;;7.50;4.70;;;;;;;;;;10504128;28;20234;-77
2022/11/27 04:25:23;;;;;;;10.00;5.13;;;;;;;;;;10509275;28;20266;-77
2022/11/27 04:30:24;;;;;;;15.68;5.07;;;;;;;;;;10494180;28;20217;-78
2022/11/27 04:35:25;;;;;;;11.93;5.70;;;;;;;;;;10485037;28;20275;-78
2022/11/27 04:40:27;;;;;;;10.87;5.33;;;;;;;;;;10503069;28;20221;-79
2022/11/27 04:45:28;;;;;;;14.82;5.20;;;;;;;;;;10504407;28;20216;-77
2022/11/27 04:50:29;;;;;;;14.82;5.47;;;;;;;;;;10502108;28;20668;-77
2022/11/27 04:55:30;;;;;;;13.87;5.67;;;;;;;;;;10498165;28;20304;-77
2022/11/27 05:00:31;;;;;;;17.95;6.22;;;;;;;;;;10498884;28;20209;-79
2022/11/27 05:05:32;;;;;;;11.00;5.97;;;;;;;;;;10505760;28;20589;-77
2022/11/27 05:10:33;;;;;;;11.25;5.43;;;;;;;;;;10490419;28;20216;-78
2022/11/27 05:15:34;;;;;;;12.37;6.10;;;;;;;;;;10505916;28;20229;-77
2022/11/27 05:20:35;;;;;;;10.40;6.15;;;;;;;;;;10500809;28;20724;-78
2022/11/27 05:25:37;;;;;;;15.02;5.93;;;;;;;;;;10498756;28;20210;-78
2022/11/27 05:30:38;;;;;;;17.75;6.43;;;;;;;;;;10490588;28;20217;-78
2022/11/27 05:35:39;;;;;;;14.45;5.68;;;;;;;;;;10507372;28;20218;-78
2022/11/27 05:40:40;;;;;;;17.67;6.68;;;;;;;;;;10493806;28;20232;-77
2022/11/27 05:45:41;;;;;;;14.35;5.95;;;;;;;;;;10508872;28;20217;-79
2022/11/27 05:50:42;;;;;;;11.20;6.80;;;;;;;;;;10509885;28;20275;-78
2022/11/27 05:55:43;;;;;;;22.67;6.77;;;;;;;;;;10514429;28;20300;-79
2022/11/27 06:00:44;;;;;;;15.97;6.33;;;;;;;;;;10510291;28;20268;-79
2022/11/27 06:05:46;;;;;;;10.77;6.23;;;;;;;;;;10503888;28;20562;-78
2022/11/27 06:10:47;;;;;;;10.90;6.50;;;;;;;;;;10507402;28;20225;-78
2022/11/27 06:15:48;;;;;;;10.00;6.90;;;;;;;;;;10504249;28;20218;-78
2022/11/27 06:20:49;;;;;;;13.68;6.53;;;;;;;;;;10507624;28;20214;-78
2022/11/27 06:25:50;;;;;;;13.30;6.80;;;;;;;;;;10502635;28;20209;-77
2022/11/27 06:30:51;;;;;;;14.37;6.20;;;;;;;;;;10493613;28;20257;-77
2022/11/27 06:35:54;;;;;;;14.75;6.10;;;;;;;;;;10499909;28;20247;-79
2022/11/27 06:41:00;;;;;;;15.60;6.10;;;;;;;;;;10505243;28;20221;-73
2022/11/27 06:46:02;;;;;;;9.67;6.20;;;;;;;;;;10500429;28;20344;-77
2022/11/27 06:51:04;;;;;;;15.90;6.20;;;;;;;;;;10489099;28;20217;-76
2022/11/27 06:56:07;;;;;;;14.80;7.13;;;;;;;;;;10497828;28;20209;-76
2022/11/27 07:01:11;;;;;;;9.90;5.53;;;;;;;;;;10497890;28;20296;-78
2022/11/27 07:06:14;;;;;;;11.83;5.87;;;;;;;;;;10498750;28;20240;-77
2022/11/27 07:11:19;;;;;;;15.02;6.13;;;;;;;;;;10480067;28;20249;-77
2022/11/27 07:16:20;;;;;;;12.63;6.68;;;;;;;;;;10498045;28;20590;-74
2022/11/27 07:21:21;;;;;;;16.77;6.40;;;;;;;;;;10487416;28;20232;-74
2022/11/27 07:26:24;;;;;;;14.20;5.78;;;;;;;;;;10504961;28;20364;-74
2022/11/27 07:31:27;;;;;;;14.18;7.75;;;;;;;;;;10476253;28;20221;-74
2022/11/27 07:36:29;;;;;;;13.93;6.47;;;;;;;;;;10501248;28;20226;-72
2022/11/27 07:41:30;;;;;;;9.67;5.37;;;;;;;;;;10496863;28;20265;-73
2022/11/27 07:46:32;;;;;;;12.97;6.07;;;;;;;;;;10488027;28;20221;-71
2022/11/27 07:51:33;;;;;;;11.23;6.07;;;;;;;;;;10489618;28;20266;-71
2022/11/27 07:56:34;;;;;;;11.93;6.07;;;;;;;;;;10499713;28;20252;-73
2022/11/27 08:01:35;;;;;;;12.60;6.22;;;;;;;;;;10501155;28;20209;-72
2022/11/27 08:06:36;;;;;;;10.70;5.88;;;;;;;;;;10499861;28;20205;-71
2022/11/27 08:11:38;;;;;;;19.07;6.27;;;;;;;;;;10484216;28;20252;-72
2022/11/27 08:16:40;;;;;;;11.05;6.45;;;;;;;;;;10505042;28;20747;-71
2022/11/27 08:21:41;;;;;;;19.05;7.25;;;;;;;;;;10502759;28;20364;-73
2022/11/27 08:26:42;;;;;;;11.50;5.50;;;;;;;;;;10482229;28;20271;-76
2022/11/27 08:31:43;;;;;;;21.77;6.90;;;;;;;;;;10497603;28;20290;-70
2022/11/27 08:36:45;;;;;;;9.77;5.07;;;;;;;;;;10482069;28;20233;-73
2022/11/27 08:41:46;;;;;;;23.55;8.50;;;;;;;;;;10483920;28;20217;-72
2022/11/27 08:46:47;;;;;;;13.32;7.07;;;;;;;;;;10505133;28;20321;-72
2022/11/27 08:51:48;;;;;;;12.27;7.18;;;;;;;;;;10484158;28;20209;-74
2022/11/27 08:56:51;;;;;;;10.98;6.35;;;;;;;;;;10504908;28;20224;-74
2022/11/27 09:01:52;;;;;;;11.70;6.45;;;;;;;;;;10504696;28;20214;-75
2022/11/27 09:06:53;;;;;;;12.40;8.20;;;;;;;;;;10492359;28;20213;-76
2022/11/27 09:11:54;;;;;;;14.10;6.93;;;;;;;;;;10499988;28;20225;-77
2022/11/27 09:16:55;;;;;;;10.65;6.90;;;;;;;;;;10498791;28;20249;-77
2022/11/27 09:21:57;;;;;;;15.05;7.95;;;;;;;;;;10487469;28;20213;-76
2022/11/27 09:26:58;;;;;;;12.23;7.20;;;;;;;;;;10504160;28;20205;-79
2022/11/27 09:31:59;;;;;;;12.35;7.00;;;;;;;;;;10504926;28;20301;-80
2022/11/27 09:37:00;;;;;;;13.45;7.05;;;;;;;;;;10509551;28;20987;-82
2022/11/27 09:42:03;;;;;;;13.55;7.63;;;;;;;;;;10488839;28;20210;-80
2022/11/27 09:47:16;;;;;;;14.15;8.02;;;;;;;;;;10501790;28;20213;-80
2022/11/27 09:52:21;;;;;;;14.23;6.28;;;;;;;;;;10500312;28;20252;-81
2022/11/27 09:57:26;;;;;;;13.13;6.07;;;;;;;;;;10500724;28;20232;-81
2022/11/27 10:02:28;;;;;;;10.02;5.45;;;;;;;;;;10507517;28;20204;-82
2022/11/27 10:07:39;;;;;;;7.47;4.45;;;;;;;;;;10506519;28;20206;-82
2022/11/27 10:12:49;;;;;;;8.70;5.13;;;;;;;;;;10500205;28;20248;-82
2022/11/27 10:18:08;;;;;;;6.38;5.28;;;;;;;;;;10503559;28;20217;-82
2022/11/27 10:23:18;;;;;;;11.00;5.90;;;;;;;;;;10508910;28;20238;-82
2022/11/27 10:28:19;;;;;;;6.25;5.07;;;;;;;;;;10503531;28;20210;-81
2022/11/27 10:33:23;;;;;;;6.10;5.10;;;;;;;;;;10511475;28;20212;-82
2022/11/27 10:38:26;;;;;;;6.22;5.00;;;;;;;;;;10488587;28;20837;-82
2022/11/27 10:43:27;;;;;;;6.13;5.22;;;;;;;;;;10504389;28;20991;-81
2022/11/27 10:48:29;;;;;;;11.00;5.13;;;;;;;;;;10504840;28;20240;-83
2022/11/27 10:53:34;;;;;;;4.70;3.70;;;;;;;;;;10507097;28;20763;-83
2022/11/27 10:58:45;;;;;;;5.05;4.57;;;;;;;;;;10508173;28;20225;-80
2022/11/27 11:03:46;;;;;;;7.35;5.03;;;;;;;;;;10503651;28;20214;-83
2022/11/27 11:08:47;;;;;;;6.10;5.30;;;;;;;;;;10510761;28;20278;-82
2022/11/27 11:13:49;;;;;;;5.65;5.15;;;;;;;;;;10506585;28;20299;-81
2022/11/27 11:18:51;;;;;;;5.95;4.38;;;;;;;;;;10490085;28;20210;-81
2022/11/27 11:24:10;;;;;;;6.53;4.80;;;;;;;;;;10500479;28;20224;-78
2022/11/27 11:29:27;;;;;;;8.52;4.75;;;;;;;;;;10507298;28;20286;-81
2022/11/27 11:34:29;;;;;;;6.35;4.13;;;;;;;;;;10506712;28;20217;-81
2022/11/27 11:39:32;;;;;;;7.50;4.05;;;;;;;;;;10497566;28;20584;-80
2022/11/27 11:44:37;;;;;;;4.93;4.38;;;;;;;;;;10501581;28;20216;-81
2022/11/27 11:49:38;;;;;;;5.85;4.45;;;;;;;;;;10505195;28;20236;-82
2022/11/27 11:54:58;;;;;;;4.68;3.88;;;;;;;;;;10486712;28;20210;-82
2022/11/27 12:00:03;;;;;;;3.90;3.55;;;;;;;;;;10495848;28;20262;-82
2022/11/27 12:05:19;;;;;;;8.98;4.22;;;;;;;;;;10505461;28;20654;-80
2022/11/27 12:10:24;;;;;;;4.47;4.07;;;;;;;;;;10504966;28;20182;-83
2022/11/27 12:15:29;;;;;;;3.85;3.55;;;;;;;;;;10511473;28;20710;-82
2022/11/27 12:20:40;;;;;;;7.55;4.18;;;;;;;;;;10490002;28;20233;-82
2022/11/27 12:25:49;;;;;;;6.18;4.20;;;;;;;;;;10507655;28;20286;-81
2022/11/27 12:36:12;;;;;;;5.05;3.58;;;;;;;;;;10369055;28;20954;-77
2022/11/27 12:41:19;;;;;;;5.70;4.13;;;;;;;;;;10408428;28;20924;-77
2022/11/27 12:46:38;;;;;;;6.55;4.32;;;;;;;;;;10411119;28;20215;-77
2022/11/27 12:51:45;;;;;;;7.57;3.38;;;;;;;;;;10378534;28;20215;-77
2022/11/27 12:56:48;;;;;;;4.63;3.38;;;;;;;;;;10412798;28;20597;-77
2022/11/27 13:02:00;;;;;;;4.35;4.03;;;;;;;;;;10412242;28;20892;-77
2022/11/27 13:07:08;;;;;;;3.35;3.05;;;;;;;;;;10387112;28;20213;-77
2022/11/27 13:12:13;;;;;;;6.90;3.80;;;;;;;;;;10410339;28;20218;-77
2022/11/27 13:17:16;;;;;;;5.15;3.63;;;;;;;;;;10407640;28;20284;-77
2022/11/27 13:22:26;;;;;;;7.25;4.60;;;;;;;;;;10403368;28;20211;-77
2022/11/27 13:27:29;;;;;;;5.07;3.85;;;;;;;;;;10396974;28;20221;-77
2022/11/27 13:32:32;;;;;;;4.03;3.55;;;;;;;;;;10372055;28;20223;-77
2022/11/27 13:37:33;;;;;;;5.07;4.53;;;;;;;;;;10365084;28;20346;-77
2022/11/27 13:42:35;;;;;;;5.40;4.18;;;;;;;;;;10361555;28;20219;-78
2022/11/27 13:47:42;;;;;;;10.60;5.13;;;;;;;;;;10370424;28;20254;-77
2022/11/27 13:53:11;;;;;;;2.83;2.58;;;;;;;;;;10349519;28;20222;-77
2022/11/27 13:58:12;;;;;;;3.33;3.15;;;;;;;;;;10328739;28;20220;-77
2022/11/27 14:03:26;;;;;;;5.47;4.20;;;;;;;;;;10366831;28;20241;-77
2022/11/27 14:08:27;;;;;;;5.85;4.63;;;;;;;;;;10376985;28;20342;-77
2022/11/27 14:13:44;;;;;;;8.10;5.35;;;;;;;;;;10376246;28;20223;-78
2022/11/27 14:18:51;;;;;;;8.18;5.03;;;;;;;;;;10355090;28;21108;-79
2022/11/27 14:23:53;;;;;;;8.05;4.53;;;;;;;;;;10374699;28;20304;-77
2022/11/27 14:28:55;;;;;;;9.13;5.43;;;;;;;;;;10375755;28;20322;-77
2022/11/27 14:33:56;;;;;;;6.50;5.13;;;;;;;;;;10365410;28;20839;-77
2022/11/27 14:38:58;;;;;;;6.15;3.85;;;;;;;;;;10369638;28;21719;-77
2022/11/27 14:44:04;;;;;;;6.45;4.97;;;;;;;;;;10370121;28;20214;-77
2022/11/27 14:49:05;;;;;;;10.18;5.05;;;;;;;;;;10365187;28;20215;-77
2022/11/27 14:54:11;;;;;;;11.40;4.75;;;;;;;;;;10384442;28;20732;-77
2022/11/27 14:59:14;;;;;;;6.43;4.93;;;;;;;;;;10376380;28;20217;-76
2022/11/27 15:04:29;;;;;;;5.97;4.55;;;;;;;;;;10375515;28;20603;-76
2022/11/27 15:09:31;;;;;;;6.28;4.70;;;;;;;;;;10378663;28;20223;-76
2022/11/27 15:14:32;;;;;;;5.85;4.45;;;;;;;;;;10371958;28;20226;-77
2022/11/27 15:19:35;;;;;;;6.63;4.55;;;;;;;;;;10391896;28;20211;-76
2022/11/27 15:24:40;;;;;;;3.60;3.28;;;;;;;;;;10388802;28;20204;-77
2022/11/27 15:29:50;;;;;;;8.65;4.07;;;;;;;;;;10389606;28;20311;-76
2022/11/27 15:34:52;;;;;;;4.07;3.65;;;;;;;;;;10366294;28;20242;-76
2022/11/27 15:39:54;;;;;;;6.60;3.75;;;;;;;;;;10365225;28;20642;-76
2022/11/27 15:44:56;;;;;;;7.57;3.97;;;;;;;;;;10368900;28;21219;-76
2022/11/27 15:49:58;;;;;;;5.78;3.33;;;;;;;;;;10379485;28;20314;-76
2022/11/27 15:54:59;;;;;;;5.43;3.90;;;;;;;;;;10363477;28;20254;-76
2022/11/27 16:00:00;;;;;;;5.93;3.75;;;;;;;;;;10367759;28;20716;-76
2022/11/27 16:05:02;;;;;;;4.53;3.70;;;;;;;;;;10363106;28;20192;-76
2022/11/27 16:10:03;;;;;;;7.70;4.63;;;;;;;;;;10374898;28;20202;-76
2022/11/27 16:15:06;;;;;;;8.02;3.83;;;;;;;;;;10368498;28;20323;-76
2022/11/27 16:20:07;;;;;;;4.50;3.90;;;;;;;;;;10377257;28;20231;-76
2022/11/27 16:25:08;;;;;;;6.38;4.18;;;;;;;;;;10369547;28;20219;-75
2022/11/27 16:30:10;;;;;;;7.97;5.32;;;;;;;;;;10379071;28;20330;-76
2022/11/27 16:35:12;;;;;;;7.68;5.43;;;;;;;;;;10357468;28;20234;-76
2022/11/27 16:40:13;;;;;;;72.78;26.70;;;;;;;;;;10384037;28;20833;-76
2022/11/27 16:45:15;;;;;;;8.90;5.50;;;;;;;;;;10377194;28;20206;-76
2022/11/27 16:50:16;;;;;;;11.07;8.02;;;;;;;;;;10398536;28;20203;-77
2022/11/27 16:55:17;;;;;;;10.05;6.03;;;;;;;;;;10396560;28;20269;-76
2022/11/27 17:00:18;;;;;;;10.93;5.80;;;;;;;;;;10375445;28;20298;-76
2022/11/27 17:05:20;;;;;;;40.83;19.52;;;;;;;;;;10381617;28;20867;-78
2022/11/27 17:10:21;;;;;;;49.35;26.05;;;;;;;;;;10388470;28;20203;-77
2022/11/27 17:15:22;;;;;;;19.65;10.52;;;;;;;;;;10376472;28;20696;-77
2022/11/27 17:20:23;;;;;;;17.38;11.25;;;;;;;;;;10386054;28;20226;-75
2022/11/27 17:25:25;;;;;;;11.98;8.07;;;;;;;;;;10394890;28;20214;-75
2022/11/27 17:30:27;;;;;;;6.45;5.35;;;;;;;;;;10384681;28;20214;-75
2022/11/27 17:35:29;;;;;;;6.35;4.80;;;;;;;;;;10408987;28;20293;-75
2022/11/27 17:40:31;;;;;;;9.88;4.38;;;;;;;;;;10391247;28;20223;-76
2022/11/27 17:45:32;;;;;;;8.00;4.53;;;;;;;;;;10399379;28;20221;-76
2022/11/27 17:50:33;;;;;;;7.35;6.38;;;;;;;;;;10390082;28;20219;-76
2022/11/27 17:55:34;;;;;;;8.95;5.22;;;;;;;;;;10395716;28;20214;-76
2022/11/27 18:00:36;;;;;;;6.07;5.47;;;;;;;;;;10383464;28;20219;-76
2022/11/27 18:05:38;;;;;;;8.18;4.55;;;;;;;;;;10385894;28;20204;-76
2022/11/27 18:10:39;;;;;;;10.00;6.32;;;;;;;;;;10403571;28;20234;-75
2022/11/27 18:15:42;;;;;;;6.97;5.75;;;;;;;;;;10388083;28;20224;-75
2022/11/27 18:20:45;;;;;;;7.80;5.15;;;;;;;;;;10375392;28;20225;-75
2022/11/27 18:25:46;;;;;;;5.60;4.93;;;;;;;;;;10386753;28;20276;-76
2022/11/27 18:30:47;;;;;;;7.65;4.70;;;;;;;;;;10403657;28;20227;-75
2022/11/27 18:35:51;;;;;;;10.23;5.93;;;;;;;;;;10370476;28;20277;-76
2022/11/27 18:40:52;;;;;;;7.25;4.72;;;;;;;;;;10403478;28;20245;-75
2022/11/27 18:45:54;;;;;;;10.85;4.35;;;;;;;;;;10382374;28;20722;-75
2022/11/27 18:51:21;;;;;;;7.75;4.70;;;;;;;;;;10349970;28;20266;-76
2022/11/27 18:56:24;;;;;;;10.13;5.60;;;;;;;;;;10359226;28;20719;-76
2022/11/27 19:01:26;;;;;;;7.20;3.97;;;;;;;;;;10348464;28;20211;-76
2022/11/27 19:06:28;;;;;;;8.10;4.97;;;;;;;;;;10366572;28;20219;-76
2022/11/27 19:11:31;;;;;;;7.60;5.90;;;;;;;;;;10363132;28;20265;-76
2022/11/27 19:16:38;;;;;;;5.85;4.28;;;;;;;;;;10396324;28;20284;-76
2022/11/27 19:21:40;;;;;;;7.22;5.10;;;;;;;;;;10408957;28;20702;-76
2022/11/27 19:26:41;;;;;;;6.82;5.15;;;;;;;;;;10396139;28;20296;-75
2022/11/27 19:31:43;;;;;;;8.07;4.95;;;;;;;;;;10403034;28;20758;-76
2022/11/27 19:36:45;;;;;;;9.23;5.20;;;;;;;;;;10411587;28;20647;-75
2022/11/27 19:41:47;;;;;;;9.18;5.47;;;;;;;;;;10399504;28;20207;-75
2022/11/27 19:46:48;;;;;;;7.85;4.82;;;;;;;;;;10407902;28;20689;-76
2022/11/27 19:51:49;;;;;;;40.97;11.40;;;;;;;;;;10405313;28;20707;-75
2022/11/27 19:56:52;;;;;;;20.50;8.98;;;;;;;;;;10402360;28;20623;-75
2022/11/27 20:01:53;;;;;;;23.77;12.20;;;;;;;;;;10402344;28;20210;-75
2022/11/27 20:06:59;;;;;;;13.95;9.70;;;;;;;;;;10408139;28;20246;-75
2022/11/27 20:12:01;;;;;;;11.73;8.02;;;;;;;;;;10389158;28;20429;-76
2022/11/27 20:17:02;;;;;;;12.15;8.27;;;;;;;;;;10406229;28;20683;-76
2022/11/27 20:22:03;;;;;;;10.38;6.28;;;;;;;;;;10408090;28;20702;-75
2022/11/27 20:27:04;;;;;;;15.63;8.43;;;;;;;;;;10389050;28;20792;-75
2022/11/27 20:32:06;;;;;;;16.48;9.40;;;;;;;;;;10392584;28;20349;-75
2022/11/27 20:37:07;;;;;;;7.40;5.25;;;;;;;;;;10399758;28;20229;-75
2022/11/27 20:42:08;;;;;;;6.25;3.60;;;;;;;;;;10407233;28;20225;-76
2022/11/27 20:47:09;;;;;;;6.85;5.28;;;;;;;;;;10406287;28;20214;-75
2022/11/27 20:52:12;;;;;;;8.32;5.10;;;;;;;;;;10391557;28;20234;-75
2022/11/27 20:57:13;;;;;;;6.03;3.33;;;;;;;;;;10401922;28;20580;-75
2022/11/27 21:02:15;;;;;;;11.27;4.45;;;;;;;;;;10404038;28;20233;-76
2022/11/27 21:07:16;;;;;;;5.72;4.97;;;;;;;;;;10407212;28;20349;-75
2022/11/27 21:12:17;;;;;;;4.72;4.32;;;;;;;;;;10408687;28;20270;-76
2022/11/27 21:17:18;;;;;;;3.75;3.40;;;;;;;;;;10390531;28;20321;-76
2022/11/27 21:22:20;;;;;;;3.40;3.10;;;;;;;;;;10412999;28;20776;-76
2022/11/27 21:27:22;;;;;;;5.60;4.18;;;;;;;;;;10377981;28;20932;-76
2022/11/27 21:32:25;;;;;;;6.60;4.50;;;;;;;;;;10413387;28;20325;-76
2022/11/27 21:37:26;;;;;;;4.97;4.13;;;;;;;;;;10408335;28;20233;-76
2022/11/27 21:42:31;;;;;;;9.38;4.40;;;;;;;;;;10398002;28;20733;-75
2022/11/27 21:47:34;;;;;;;8.10;4.72;;;;;;;;;;10410503;28;20207;-75
2022/11/27 21:52:35;;;;;;;4.70;4.18;;;;;;;;;;10379984;28;20249;-76
2022/11/27 21:57:36;;;;;;;11.60;4.93;;;;;;;;;;10375427;28;20229;-76
2022/11/27 22:02:37;;;;;;;7.40;4.35;;;;;;;;;;10410340;28;20234;-76
2022/11/27 22:07:38;;;;;;;4.20;3.50;;;;;;;;;;10411083;28;20219;-75
2022/11/27 22:12:40;;;;;;;12.30;6.10;;;;;;;;;;10410353;28;20212;-76
2022/11/27 22:17:41;;;;;;;6.20;4.30;;;;;;;;;;10399084;28;20222;-76
2022/11/27 22:22:42;;;;;;;8.60;5.43;;;;;;;;;;10417249;28;20206;-76
2022/11/27 22:27:43;;;;;;;5.22;4.38;;;;;;;;;;10419124;28;20328;-75
2022/11/27 22:32:44;;;;;;;7.47;4.70;;;;;;;;;;10420593;28;20277;-76
2022/11/27 22:37:45;;;;;;;5.28;3.20;;;;;;;;;;10392509;28;20214;-75
2022/11/27 22:42:47;;;;;;;8.55;4.60;;;;;;;;;;10405519;28;20218;-76
2022/11/27 22:47:48;;;;;;;5.43;4.00;;;;;;;;;;10403492;28;20214;-75
2022/11/27 22:52:49;;;;;;;4.32;3.70;;;;;;;;;;10418439;28;20364;-76
2022/11/27 22:57:50;;;;;;;4.85;3.72;;;;;;;;;;10398351;28;20277;-75
2022/11/27 23:02:51;;;;;;;6.57;5.10;;;;;;;;;;10404071;28;20799;-76
2022/11/27 23:07:53;;;;;;;4.32;3.10;;;;;;;;;;10419868;28;20214;-75
2022/11/27 23:12:54;;;;;;;5.38;4.15;;;;;;;;;;10414556;28;20209;-75
2022/11/27 23:17:56;;;;;;;8.95;4.75;;;;;;;;;;10401090;28;20222;-76
2022/11/27 23:22:58;;;;;;;6.78;4.63;;;;;;;;;;10418724;28;20231;-76
2022/11/27 23:27:59;;;;;;;5.88;4.63;;;;;;;;;;10415966;28;20219;-75
2022/11/27 23:33:00;;;;;;;6.55;3.78;;;;;;;;;;10416828;28;20230;-76
2022/11/27 23:38:01;;;;;;;4.70;3.72;;;;;;;;;;10418632;28;20219;-76
2022/11/27 23:43:02;;;;;;;5.32;3.85;;;;;;;;;;10414751;28;20207;-76
2022/11/27 23:48:03;;;;;;;4.28;3.83;;;;;;;;;;10385482;28;20215;-76
2022/11/27 23:53:04;;;;;;;5.18;3.63;;;;;;;;;;10404362;28;20260;-76
2022/11/27 23:58:05;;;;;;;6.25;4.90;;;;;;;;;;10419065;28;20240;-76
